sensor_id;sensor_type;location;lat;lon;timestamp;pressure;altitude;pressure_sealevel;temperature;humidity
15487;BME280;7845;53.698;10.078;2023-08-06T00:01:50;100259.88;;;20.85;100.00
15487;BME280;7845;53.698;10.078;2023-08-06T00:04:16;100251.34;;;20.80;100.00
15487;BME280;7845;53.698;10.078;2023-08-06T00:06:41;100244.59;;;20.74;100.00
15487;BME280;7845;53.698;10.078;2023-08-06T00:09:07;100241.03;;;20.60;100.00
15487;BME280;7845;53.698;10.078;2023-08-06T00:11:32;100234.47;;;20.51;100.00
15487;BME280;7845;53.698;10.078;2023-08-06T00:13:58;100243.53;;;20.47;100.00
15487;BME280;7845;53.698;10.078;2023-08-06T00:16:23;100232.16;;;20.45;100.00
15487;BME280;7845;53.698;10.078;2023-08-06T00:18:48;100238.22;;;20.47;100.00
15487;BME280;7845;53.698;10.078;2023-08-06T00:21:14;100230.38;;;20.46;100.00
15487;BME280;7845;53.698;10.078;2023-08-06T00:23:40;100218.38;;;20.38;100.00
15487;BME280;7845;53.698;10.078;2023-08-06T00:26:05;100207.63;;;20.41;100.00
15487;BME280;7845;53.698;10.078;2023-08-06T00:28:31;100199.72;;;20.40;100.00
15487;BME280;7845;53.698;10.078;2023-08-06T00:31:00;100207.50;;;20.43;100.00
15487;BME280;7845;53.698;10.078;2023-08-06T00:33:26;100206.41;;;20.47;100.00
15487;BME280;7845;53.698;10.078;2023-08-06T00:35:52;100198.44;;;20.47;100.00
15487;BME280;7845;53.698;10.078;2023-08-06T00:38:17;100201.84;;;20.49;100.00
15487;BME280;7845;53.698;10.078;2023-08-06T00:40:43;100191.84;;;20.54;100.00
15487;BME280;7845;53.698;10.078;2023-08-06T00:43:14;100189.63;;;20.47;100.00
15487;BME280;7845;53.698;10.078;2023-08-06T00:45:41;100182.56;;;20.31;100.00
15487;BME280;7845;53.698;10.078;2023-08-06T00:48:07;100173.56;;;20.34;100.00
15487;BME280;7845;53.698;10.078;2023-08-06T00:50:33;100171.53;;;20.08;100.00
15487;BME280;7845;53.698;10.078;2023-08-06T00:52:59;100164.44;;;20.08;100.00
15487;BME280;7845;53.698;10.078;2023-08-06T00:55:28;100164.19;;;20.13;100.00
15487;BME280;7845;53.698;10.078;2023-08-06T00:57:55;100158.78;;;20.14;100.00
15487;BME280;7845;53.698;10.078;2023-08-06T01:00:24;100156.66;;;20.21;100.00
15487;BME280;7845;53.698;10.078;2023-08-06T01:02:52;100143.75;;;20.15;100.00
15487;BME280;7845;53.698;10.078;2023-08-06T01:05:18;100140.84;;;19.72;100.00
15487;BME280;7845;53.698;10.078;2023-08-06T01:07:51;100134.97;;;19.67;100.00
15487;BME280;7845;53.698;10.078;2023-08-06T01:13:38;100118.72;;;19.58;100.00
15487;BME280;7845;53.698;10.078;2023-08-06T01:16:09;100115.97;;;19.59;100.00
15487;BME280;7845;53.698;10.078;2023-08-06T01:18:35;100109.00;;;20.65;100.00
15487;BME280;7845;53.698;10.078;2023-08-06T01:21:03;100107.53;;;20.89;100.00
15487;BME280;7845;53.698;10.078;2023-08-06T01:23:29;100110.19;;;21.03;100.00
15487;BME280;7845;53.698;10.078;2023-08-06T01:28:59;100115.44;;;21.19;100.00
15487;BME280;7845;53.698;10.078;2023-08-06T01:31:37;100129.75;;;21.16;100.00
15487;BME280;7845;53.698;10.078;2023-08-06T01:34:05;100123.22;;;21.22;100.00
15487;BME280;7845;53.698;10.078;2023-08-06T01:36:31;100117.97;;;21.06;100.00
15487;BME280;7845;53.698;10.078;2023-08-06T01:38:58;100116.66;;;20.99;100.00
15487;BME280;7845;53.698;10.078;2023-08-06T01:41:24;100114.06;;;20.97;100.00
15487;BME280;7845;53.698;10.078;2023-08-06T01:43:49;100111.28;;;20.85;100.00
15487;BME280;7845;53.698;10.078;2023-08-06T01:46:14;100110.94;;;20.91;100.00
15487;BME280;7845;53.698;10.078;2023-08-06T01:48:40;100107.63;;;20.87;100.00
15487;BME280;7845;53.698;10.078;2023-08-06T01:51:05;100106.47;;;21.06;100.00
15487;BME280;7845;53.698;10.078;2023-08-06T01:53:31;100102.72;;;21.10;100.00
15487;BME280;7845;53.698;10.078;2023-08-06T01:55:57;100101.59;;;21.00;100.00
15487;BME280;7845;53.698;10.078;2023-08-06T01:58:23;100112.03;;;20.73;100.00
15487;BME280;7845;53.698;10.078;2023-08-06T02:00:48;100100.47;;;20.60;100.00
15487;BME280;7845;53.698;10.078;2023-08-06T02:03:13;100090.91;;;20.57;100.00
15487;BME280;7845;53.698;10.078;2023-08-06T02:05:39;100092.59;;;20.58;100.00
15487;BME280;7845;53.698;10.078;2023-08-06T02:08:05;100088.31;;;20.56;100.00
15487;BME280;7845;53.698;10.078;2023-08-06T02:10:30;100076.91;;;20.69;100.00
15487;BME280;7845;53.698;10.078;2023-08-06T02:12:55;100085.91;;;20.81;100.00
15487;BME280;7845;53.698;10.078;2023-08-06T02:15:21;100082.22;;;20.83;100.00
15487;BME280;7845;53.698;10.078;2023-08-06T02:17:46;100077.00;;;20.82;100.00
15487;BME280;7845;53.698;10.078;2023-08-06T02:20:13;100076.63;;;20.74;100.00
15487;BME280;7845;53.698;10.078;2023-08-06T02:22:38;100077.66;;;20.85;100.00
15487;BME280;7845;53.698;10.078;2023-08-06T02:25:05;100070.38;;;20.75;100.00
15487;BME280;7845;53.698;10.078;2023-08-06T02:27:30;100077.09;;;20.80;100.00
15487;BME280;7845;53.698;10.078;2023-08-06T02:29:55;100070.81;;;20.53;100.00
15487;BME280;7845;53.698;10.078;2023-08-06T02:32:21;100070.53;;;20.58;100.00
15487;BME280;7845;53.698;10.078;2023-08-06T02:34:46;100066.19;;;20.85;100.00
15487;BME280;7845;53.698;10.078;2023-08-06T02:37:11;100063.53;;;20.85;100.00
15487;BME280;7845;53.698;10.078;2023-08-06T02:39:37;100063.72;;;20.82;100.00
15487;BME280;7845;53.698;10.078;2023-08-06T02:42:08;100066.88;;;20.74;100.00
15487;BME280;7845;53.698;10.078;2023-08-06T02:44:34;100060.03;;;20.70;100.00
15487;BME280;7845;53.698;10.078;2023-08-06T02:47:00;100057.00;;;20.76;100.00
15487;BME280;7845;53.698;10.078;2023-08-06T02:49:25;100055.50;;;20.72;100.00
15487;BME280;7845;53.698;10.078;2023-08-06T02:51:50;100046.38;;;20.62;100.00
15487;BME280;7845;53.698;10.078;2023-08-06T02:54:17;100053.13;;;20.68;100.00
15487;BME280;7845;53.698;10.078;2023-08-06T02:56:46;100050.00;;;20.75;100.00
15487;BME280;7845;53.698;10.078;2023-08-06T02:59:12;100049.81;;;20.78;100.00
15487;BME280;7845;53.698;10.078;2023-08-06T03:01:38;100045.09;;;20.83;100.00
15487;BME280;7845;53.698;10.078;2023-08-06T03:04:03;100048.19;;;20.76;100.00
15487;BME280;7845;53.698;10.078;2023-08-06T03:06:29;100045.09;;;20.83;100.00
15487;BME280;7845;53.698;10.078;2023-08-06T03:08:54;100046.88;;;20.83;100.00
15487;BME280;7845;53.698;10.078;2023-08-06T03:11:19;100050.75;;;20.63;100.00
15487;BME280;7845;53.698;10.078;2023-08-06T03:13:45;100047.06;;;20.52;100.00
15487;BME280;7845;53.698;10.078;2023-08-06T03:16:10;100043.34;;;20.54;100.00
15487;BME280;7845;53.698;10.078;2023-08-06T03:18:35;100042.88;;;20.62;100.00
15487;BME280;7845;53.698;10.078;2023-08-06T03:21:01;100044.47;;;20.50;100.00
15487;BME280;7845;53.698;10.078;2023-08-06T03:23:27;100044.66;;;20.47;100.00
15487;BME280;7845;53.698;10.078;2023-08-06T03:25:52;100040.34;;;20.60;100.00
15487;BME280;7845;53.698;10.078;2023-08-06T03:28:18;100036.75;;;20.31;100.00
15487;BME280;7845;53.698;10.078;2023-08-06T03:30:43;100036.25;;;20.25;100.00
15487;BME280;7845;53.698;10.078;2023-08-06T03:33:08;100039.16;;;20.36;100.00
15487;BME280;7845;53.698;10.078;2023-08-06T03:35:33;100035.53;;;20.37;100.00
15487;BME280;7845;53.698;10.078;2023-08-06T03:38:01;100035.28;;;20.41;100.00
15487;BME280;7845;53.698;10.078;2023-08-06T03:40:27;100032.75;;;20.24;100.00
15487;BME280;7845;53.698;10.078;2023-08-06T03:42:52;100023.81;;;20.41;100.00
15487;BME280;7845;53.698;10.078;2023-08-06T03:45:17;100019.75;;;20.35;100.00
15487;BME280;7845;53.698;10.078;2023-08-06T03:47:44;100024.38;;;20.32;100.00
15487;BME280;7845;53.698;10.078;2023-08-06T03:50:09;100018.19;;;20.31;100.00
15487;BME280;7845;53.698;10.078;2023-08-06T03:52:35;100018.81;;;20.36;100.00
15487;BME280;7845;53.698;10.078;2023-08-06T03:55:00;100011.84;;;20.64;100.00
15487;BME280;7845;53.698;10.078;2023-08-06T03:57:26;100018.25;;;20.60;100.00
15487;BME280;7845;53.698;10.078;2023-08-06T03:59:52;100020.06;;;20.59;100.00
15487;BME280;7845;53.698;10.078;2023-08-06T04:02:17;100022.03;;;20.56;100.00
15487;BME280;7845;53.698;10.078;2023-08-06T04:04:42;100017.47;;;20.43;100.00
15487;BME280;7845;53.698;10.078;2023-08-06T04:07:08;100018.06;;;20.49;100.00
15487;BME280;7845;53.698;10.078;2023-08-06T04:09:33;100017.22;;;20.48;100.00
15487;BME280;7845;53.698;10.078;2023-08-06T04:12:00;100014.84;;;20.58;100.00
15487;BME280;7845;53.698;10.078;2023-08-06T04:14:27;100013.50;;;20.65;100.00
15487;BME280;7845;53.698;10.078;2023-08-06T04:16:53;100016.09;;;20.66;100.00
15487;BME280;7845;53.698;10.078;2023-08-06T04:19:18;100006.72;;;20.61;100.00
15487;BME280;7845;53.698;10.078;2023-08-06T04:21:43;100012.38;;;20.55;100.00
15487;BME280;7845;53.698;10.078;2023-08-06T04:24:08;100023.06;;;20.53;100.00
15487;BME280;7845;53.698;10.078;2023-08-06T04:26:34;100027.16;;;20.73;100.00
15487;BME280;7845;53.698;10.078;2023-08-06T04:28:59;100023.56;;;20.74;100.00
15487;BME280;7845;53.698;10.078;2023-08-06T04:31:24;100024.41;;;20.74;100.00
15487;BME280;7845;53.698;10.078;2023-08-06T04:33:49;100028.13;;;20.58;100.00
15487;BME280;7845;53.698;10.078;2023-08-06T04:36:15;100027.81;;;20.62;100.00
15487;BME280;7845;53.698;10.078;2023-08-06T04:38:41;100028.50;;;20.66;100.00
15487;BME280;7845;53.698;10.078;2023-08-06T04:41:10;100031.63;;;20.72;100.00
15487;BME280;7845;53.698;10.078;2023-08-06T04:43:36;100028.19;;;20.70;100.00
15487;BME280;7845;53.698;10.078;2023-08-06T04:46:01;100032.75;;;20.68;100.00
15487;BME280;7845;53.698;10.078;2023-08-06T04:48:26;100031.81;;;20.69;100.00
15487;BME280;7845;53.698;10.078;2023-08-06T04:50:54;100036.75;;;20.75;100.00
15487;BME280;7845;53.698;10.078;2023-08-06T04:53:20;100032.38;;;20.74;100.00
15487;BME280;7845;53.698;10.078;2023-08-06T04:55:47;100033.06;;;20.78;100.00
15487;BME280;7845;53.698;10.078;2023-08-06T04:58:13;100027.16;;;20.73;100.00
15487;BME280;7845;53.698;10.078;2023-08-06T05:00:38;100029.16;;;20.83;100.00
15487;BME280;7845;53.698;10.078;2023-08-06T05:03:05;100028.41;;;20.81;100.00
15487;BME280;7845;53.698;10.078;2023-08-06T05:05:30;100024.03;;;20.80;100.00
15487;BME280;7845;53.698;10.078;2023-08-06T05:07:57;100021.03;;;20.72;100.00
15487;BME280;7845;53.698;10.078;2023-08-06T05:10:26;100027.34;;;20.70;100.00
15487;BME280;7845;53.698;10.078;2023-08-06T05:12:53;100016.47;;;20.74;100.00
15487;BME280;7845;53.698;10.078;2023-08-06T05:15:19;100017.81;;;20.81;100.00
15487;BME280;7845;53.698;10.078;2023-08-06T05:17:44;100017.97;;;20.92;100.00
15487;BME280;7845;53.698;10.078;2023-08-06T05:20:10;100015.88;;;20.97;100.00
15487;BME280;7845;53.698;10.078;2023-08-06T05:22:36;100019.75;;;21.06;100.00
15487;BME280;7845;53.698;10.078;2023-08-06T05:25:01;100006.72;;;21.17;100.00
15487;BME280;7845;53.698;10.078;2023-08-06T05:27:27;100015.63;;;21.16;100.00
15487;BME280;7845;53.698;10.078;2023-08-06T05:29:55;100019.22;;;21.15;100.00
15487;BME280;7845;53.698;10.078;2023-08-06T05:32:20;100014.69;;;21.17;100.00
15487;BME280;7845;53.698;10.078;2023-08-06T05:34:46;100017.56;;;21.27;100.00
15487;BME280;7845;53.698;10.078;2023-08-06T05:37:11;100015.59;;;21.30;100.00
15487;BME280;7845;53.698;10.078;2023-08-06T05:39:37;100006.69;;;21.31;100.00
15487;BME280;7845;53.698;10.078;2023-08-06T05:42:04;100009.81;;;21.38;100.00
15487;BME280;7845;53.698;10.078;2023-08-06T05:44:29;100013.19;;;21.40;100.00
15487;BME280;7845;53.698;10.078;2023-08-06T05:46:55;100010.22;;;21.44;100.00
15487;BME280;7845;53.698;10.078;2023-08-06T05:49:20;100012.59;;;21.49;100.00
15487;BME280;7845;53.698;10.078;2023-08-06T05:51:45;100012.59;;;21.49;100.00
15487;BME280;7845;53.698;10.078;2023-08-06T05:54:13;100008.22;;;21.48;100.00
15487;BME280;7845;53.698;10.078;2023-08-06T05:56:38;100013.75;;;21.45;100.00
15487;BME280;7845;53.698;10.078;2023-08-06T05:59:03;100007.94;;;21.52;100.00
15487;BME280;7845;53.698;10.078;2023-08-06T06:01:28;100000.53;;;21.58;100.00
15487;BME280;7845;53.698;10.078;2023-08-06T06:03:54;100001.00;;;21.64;100.00
15487;BME280;7845;53.698;10.078;2023-08-06T06:06:19;99990.16;;;21.67;100.00
15487;BME280;7845;53.698;10.078;2023-08-06T06:08:45;99995.78;;;21.89;100.00
15487;BME280;7845;53.698;10.078;2023-08-06T06:11:11;99993.50;;;21.83;100.00
15487;BME280;7845;53.698;10.078;2023-08-06T06:13:36;99993.28;;;21.86;100.00
15487;BME280;7845;53.698;10.078;2023-08-06T06:16:01;99985.50;;;21.83;100.00
15487;BME280;7845;53.698;10.078;2023-08-06T06:18:27;99996.13;;;21.71;100.00
15487;BME280;7845;53.698;10.078;2023-08-06T06:20:52;99996.13;;;21.71;100.00
15487;BME280;7845;53.698;10.078;2023-08-06T06:23:17;99999.41;;;21.47;100.00
15487;BME280;7845;53.698;10.078;2023-08-06T06:25:44;99994.72;;;21.38;100.00
15487;BME280;7845;53.698;10.078;2023-08-06T06:28:11;99986.34;;;21.44;100.00
15487;BME280;7845;53.698;10.078;2023-08-06T06:30:37;99989.84;;;21.45;100.00
15487;BME280;7845;53.698;10.078;2023-08-06T06:33:02;99996.53;;;21.38;100.00
15487;BME280;7845;53.698;10.078;2023-08-06T06:35:30;100000.13;;;21.37;100.00
15487;BME280;7845;53.698;10.078;2023-08-06T06:37:56;100009.03;;;21.36;100.00
15487;BME280;7845;53.698;10.078;2023-08-06T06:40:22;99994.88;;;21.49;100.00
15487;BME280;7845;53.698;10.078;2023-08-06T06:42:48;99994.69;;;21.52;100.00
15487;BME280;7845;53.698;10.078;2023-08-06T06:45:13;100001.75;;;21.25;100.00
15487;BME280;7845;53.698;10.078;2023-08-06T06:47:38;100006.03;;;21.28;100.00
15487;BME280;7845;53.698;10.078;2023-08-06T06:50:04;100007.28;;;21.22;100.00
15487;BME280;7845;53.698;10.078;2023-08-06T06:52:29;100005.47;;;20.94;100.00
15487;BME280;7845;53.698;10.078;2023-08-06T06:54:55;100007.19;;;20.95;100.00
15487;BME280;7845;53.698;10.078;2023-08-06T06:57:20;99999.88;;;20.99;100.00
15487;BME280;7845;53.698;10.078;2023-08-06T06:59:48;99998.00;;;20.87;100.00
15487;BME280;7845;53.698;10.078;2023-08-06T07:02:13;100004.25;;;20.86;100.00
15487;BME280;7845;53.698;10.078;2023-08-06T07:04:38;100005.09;;;20.86;100.00
15487;BME280;7845;53.698;10.078;2023-08-06T07:07:04;100005.56;;;21.07;100.00
15487;BME280;7845;53.698;10.078;2023-08-06T07:09:29;99995.78;;;21.22;100.00
15487;BME280;7845;53.698;10.078;2023-08-06T07:11:55;99998.72;;;21.31;100.00
15487;BME280;7845;53.698;10.078;2023-08-06T07:14:24;99998.47;;;21.48;100.00
15487;BME280;7845;53.698;10.078;2023-08-06T07:16:49;99999.38;;;21.62;100.00
15487;BME280;7845;53.698;10.078;2023-08-06T07:19:15;100006.97;;;21.68;100.00
15487;BME280;7845;53.698;10.078;2023-08-06T07:21:40;99999.72;;;21.70;100.00
15487;BME280;7845;53.698;10.078;2023-08-06T07:24:05;100001.19;;;21.88;100.00
15487;BME280;7845;53.698;10.078;2023-08-06T07:26:30;99991.31;;;21.90;100.00
15487;BME280;7845;53.698;10.078;2023-08-06T07:28:56;99999.00;;;21.80;100.00
15487;BME280;7845;53.698;10.078;2023-08-06T07:31:21;99997.41;;;22.04;100.00
15487;BME280;7845;53.698;10.078;2023-08-06T07:33:46;99988.09;;;22.24;100.00
15487;BME280;7845;53.698;10.078;2023-08-06T07:36:13;99993.09;;;22.29;100.00
15487;BME280;7845;53.698;10.078;2023-08-06T07:38:40;99990.66;;;22.38;100.00
15487;BME280;7845;53.698;10.078;2023-08-06T07:41:06;99986.13;;;22.66;100.00
15487;BME280;7845;53.698;10.078;2023-08-06T07:43:32;99999.78;;;22.22;100.00
15487;BME280;7845;53.698;10.078;2023-08-06T07:45:58;99994.25;;;22.37;100.00
15487;BME280;7845;53.698;10.078;2023-08-06T07:48:25;99997.78;;;22.50;100.00
15487;BME280;7845;53.698;10.078;2023-08-06T07:50:55;100004.69;;;22.53;100.00
15487;BME280;7845;53.698;10.078;2023-08-06T07:53:24;100007.88;;;22.58;100.00
15487;BME280;7845;53.698;10.078;2023-08-06T07:55:54;100000.00;;;22.44;100.00
15487;BME280;7845;53.698;10.078;2023-08-06T07:58:20;100003.38;;;22.73;100.00
15487;BME280;7845;53.698;10.078;2023-08-06T08:00:46;100002.38;;;22.86;100.00
15487;BME280;7845;53.698;10.078;2023-08-06T08:03:13;100003.13;;;22.88;100.00
15487;BME280;7845;53.698;10.078;2023-08-06T08:05:39;100003.16;;;23.25;100.00
15487;BME280;7845;53.698;10.078;2023-08-06T08:08:04;99999.19;;;23.43;100.00
15487;BME280;7845;53.698;10.078;2023-08-06T08:10:32;99999.63;;;23.24;100.00
15487;BME280;7845;53.698;10.078;2023-08-06T08:12:57;100010.66;;;23.07;100.00
15487;BME280;7845;53.698;10.078;2023-08-06T08:15:24;100012.66;;;23.16;100.00
15487;BME280;7845;53.698;10.078;2023-08-06T08:17:51;100009.09;;;22.79;100.00
15487;BME280;7845;53.698;10.078;2023-08-06T08:20:17;100008.50;;;23.12;100.00
15487;BME280;7845;53.698;10.078;2023-08-06T08:22:42;100009.56;;;23.22;100.00
15487;BME280;7845;53.698;10.078;2023-08-06T08:25:07;99999.50;;;23.38;100.00
15487;BME280;7845;53.698;10.078;2023-08-06T08:27:33;100010.34;;;23.48;100.00
15487;BME280;7845;53.698;10.078;2023-08-06T08:29:58;100002.94;;;23.28;100.00
15487;BME280;7845;53.698;10.078;2023-08-06T08:32:23;100012.72;;;23.27;100.00
15487;BME280;7845;53.698;10.078;2023-08-06T08:34:50;100004.22;;;23.22;100.00
15487;BME280;7845;53.698;10.078;2023-08-06T08:37:15;100005.03;;;22.86;100.00
15487;BME280;7845;53.698;10.078;2023-08-06T08:39:40;100004.28;;;23.33;100.00
15487;BME280;7845;53.698;10.078;2023-08-06T08:42:06;100003.97;;;23.50;100.00
15487;BME280;7845;53.698;10.078;2023-08-06T08:44:32;100002.09;;;23.63;100.00
15487;BME280;7845;53.698;10.078;2023-08-06T08:46:59;100008.72;;;23.82;100.00
15487;BME280;7845;53.698;10.078;2023-08-06T08:49:27;100010.75;;;23.78;100.00
15487;BME280;7845;53.698;10.078;2023-08-06T08:51:53;100008.69;;;23.71;100.00
15487;BME280;7845;53.698;10.078;2023-08-06T08:54:22;100010.56;;;23.08;100.00
15487;BME280;7845;53.698;10.078;2023-08-06T08:56:48;100008.31;;;23.51;100.00
15487;BME280;7845;53.698;10.078;2023-08-06T08:59:13;100013.44;;;23.78;100.00
15487;BME280;7845;53.698;10.078;2023-08-06T09:01:40;100012.53;;;23.66;100.00
15487;BME280;7845;53.698;10.078;2023-08-06T09:04:07;100006.63;;;23.98;100.00
15487;BME280;7845;53.698;10.078;2023-08-06T09:06:36;100020.50;;;23.30;100.00
15487;BME280;7845;53.698;10.078;2023-08-06T09:09:16;100013.94;;;23.10;100.00
15487;BME280;7845;53.698;10.078;2023-08-06T09:11:47;100012.72;;;23.40;100.00
15487;BME280;7845;53.698;10.078;2023-08-06T09:14:15;100001.56;;;23.22;100.00
15487;BME280;7845;53.698;10.078;2023-08-06T09:16:40;99996.72;;;23.76;100.00
15487;BME280;7845;53.698;10.078;2023-08-06T09:19:13;99998.66;;;24.09;100.00
15487;BME280;7845;53.698;10.078;2023-08-06T09:21:39;100004.56;;;24.25;100.00
15487;BME280;7845;53.698;10.078;2023-08-06T09:24:12;100015.50;;;24.09;100.00
15487;BME280;7845;53.698;10.078;2023-08-06T09:26:38;100022.31;;;24.13;100.00
15487;BME280;7845;53.698;10.078;2023-08-06T09:29:07;100012.69;;;24.00;100.00
15487;BME280;7845;53.698;10.078;2023-08-06T09:31:40;100023.31;;;23.89;100.00
15487;BME280;7845;53.698;10.078;2023-08-06T09:34:30;100024.94;;;23.79;100.00
15487;BME280;7845;53.698;10.078;2023-08-06T09:36:55;100022.66;;;24.09;100.00
15487;BME280;7845;53.698;10.078;2023-08-06T09:39:26;100015.84;;;24.05;100.00
15487;BME280;7845;53.698;10.078;2023-08-06T09:41:57;100022.91;;;23.82;100.00
15487;BME280;7845;53.698;10.078;2023-08-06T09:44:25;100015.81;;;23.70;100.00
15487;BME280;7845;53.698;10.078;2023-08-06T09:49:20;100019.78;;;23.15;100.00
15487;BME280;7845;53.698;10.078;2023-08-06T09:51:50;100012.56;;;23.18;100.00
15487;BME280;7845;53.698;10.078;2023-08-06T09:54:17;100018.84;;;23.17;100.00
15487;BME280;7845;53.698;10.078;2023-08-06T09:56:44;100010.22;;;23.13;100.00
15487;BME280;7845;53.698;10.078;2023-08-06T09:59:09;100013.16;;;22.72;100.00
15487;BME280;7845;53.698;10.078;2023-08-06T10:01:36;100007.78;;;22.59;100.00
15487;BME280;7845;53.698;10.078;2023-08-06T10:04:04;100006.00;;;22.60;100.00
15487;BME280;7845;53.698;10.078;2023-08-06T10:06:33;100001.63;;;22.59;100.00
15487;BME280;7845;53.698;10.078;2023-08-06T10:08:59;99994.41;;;22.74;100.00
15487;BME280;7845;53.698;10.078;2023-08-06T10:11:26;99999.16;;;22.56;100.00
15487;BME280;7845;53.698;10.078;2023-08-06T10:13:56;99986.81;;;22.55;100.00
15487;BME280;7845;53.698;10.078;2023-08-06T10:16:23;99979.38;;;22.35;100.00
15487;BME280;7845;53.698;10.078;2023-08-06T10:18:50;99987.53;;;22.19;100.00
15487;BME280;7845;53.698;10.078;2023-08-06T10:21:16;99976.19;;;22.42;100.00
15487;BME280;7845;53.698;10.078;2023-08-06T10:23:41;99974.03;;;22.22;100.00
15487;BME280;7845;53.698;10.078;2023-08-06T10:26:07;99973.94;;;22.24;100.00
15487;BME280;7845;53.698;10.078;2023-08-06T10:28:39;99970.00;;;22.29;100.00
15487;BME280;7845;53.698;10.078;2023-08-06T10:31:05;99962.22;;;22.01;100.00
15487;BME280;7845;53.698;10.078;2023-08-06T10:33:44;99959.59;;;22.39;100.00
15487;BME280;7845;53.698;10.078;2023-08-06T10:36:10;99965.44;;;22.31;100.00
15487;BME280;7845;53.698;10.078;2023-08-06T10:38:50;99948.84;;;22.28;100.00
15487;BME280;7845;53.698;10.078;2023-08-06T10:41:22;99957.47;;;22.19;100.00
15487;BME280;7845;53.698;10.078;2023-08-06T10:43:49;99948.09;;;22.38;100.00
15487;BME280;7845;53.698;10.078;2023-08-06T10:46:25;99945.53;;;22.49;100.00
15487;BME280;7845;53.698;10.078;2023-08-06T10:48:52;99950.97;;;22.23;100.00
15487;BME280;7845;53.698;10.078;2023-08-06T10:51:17;99939.34;;;22.11;100.00
15487;BME280;7845;53.698;10.078;2023-08-06T10:53:46;99941.59;;;22.55;100.00
15487;BME280;7845;53.698;10.078;2023-08-06T10:56:13;99943.00;;;22.60;100.00
15487;BME280;7845;53.698;10.078;2023-08-06T10:58:40;99942.00;;;22.61;100.00
15487;BME280;7845;53.698;10.078;2023-08-06T11:01:05;99940.63;;;22.43;100.00
15487;BME280;7845;53.698;10.078;2023-08-06T11:03:31;99931.50;;;22.60;100.00
15487;BME280;7845;53.698;10.078;2023-08-06T11:05:58;99929.28;;;22.67;100.00
15487;BME280;7845;53.698;10.078;2023-08-06T11:08:25;99930.47;;;21.85;100.00
15487;BME280;7845;53.698;10.078;2023-08-06T11:10:50;99925.13;;;22.25;100.00
15487;BME280;7845;53.698;10.078;2023-08-06T11:13:20;99914.38;;;22.51;100.00
15487;BME280;7845;53.698;10.078;2023-08-06T11:15:45;99909.03;;;22.77;100.00
15487;BME280;7845;53.698;10.078;2023-08-06T11:18:11;99921.28;;;22.41;100.00
15487;BME280;7845;53.698;10.078;2023-08-06T11:20:37;99911.72;;;23.00;100.00
15487;BME280;7845;53.698;10.078;2023-08-06T11:23:05;99914.97;;;22.80;100.00
15487;BME280;7845;53.698;10.078;2023-08-06T11:25:31;99914.97;;;22.80;100.00
15487;BME280;7845;53.698;10.078;2023-08-06T11:27:57;99915.44;;;22.74;100.00
15487;BME280;7845;53.698;10.078;2023-08-06T11:30:22;99925.75;;;22.53;100.00
15487;BME280;7845;53.698;10.078;2023-08-06T11:32:49;99911.03;;;23.22;100.00
15487;BME280;7845;53.698;10.078;2023-08-06T11:35:15;99913.59;;;23.24;100.00
15487;BME280;7845;53.698;10.078;2023-08-06T11:37:45;99912.19;;;23.65;100.00
15487;BME280;7845;53.698;10.078;2023-08-06T11:40:11;99926.91;;;22.62;100.00
15487;BME280;7845;53.698;10.078;2023-08-06T11:42:37;99924.47;;;22.59;100.00
15487;BME280;7845;53.698;10.078;2023-08-06T11:47:29;99921.50;;;22.38;100.00
15487;BME280;7845;53.698;10.078;2023-08-06T11:49:55;99917.94;;;22.88;100.00
15487;BME280;7845;53.698;10.078;2023-08-06T11:52:24;99912.31;;;23.53;100.00
15487;BME280;7845;53.698;10.078;2023-08-06T11:57:26;99914.88;;;24.00;100.00
15487;BME280;7845;53.698;10.078;2023-08-06T11:59:51;99922.94;;;23.77;100.00
15487;BME280;7845;53.698;10.078;2023-08-06T12:02:21;99913.50;;;23.36;100.00
15487;BME280;7845;53.698;10.078;2023-08-06T12:05:16;99914.03;;;24.00;100.00
15487;BME280;7845;53.698;10.078;2023-08-06T12:07:48;99900.78;;;23.87;100.00
15487;BME280;7845;53.698;10.078;2023-08-06T12:10:15;99893.63;;;24.34;100.00
15487;BME280;7845;53.698;10.078;2023-08-06T12:12:41;99888.63;;;24.62;100.00
15487;BME280;7845;53.698;10.078;2023-08-06T12:15:07;99913.06;;;24.01;100.00
15487;BME280;7845;53.698;10.078;2023-08-06T12:17:33;99907.22;;;23.96;100.00
15487;BME280;7845;53.698;10.078;2023-08-06T12:20:00;99896.88;;;24.26;100.00
15487;BME280;7845;53.698;10.078;2023-08-06T12:22:26;99896.13;;;24.79;100.00
15487;BME280;7845;53.698;10.078;2023-08-06T12:24:51;99896.06;;;25.35;100.00
15487;BME280;7845;53.698;10.078;2023-08-06T12:27:16;99905.84;;;25.46;100.00
15487;BME280;7845;53.698;10.078;2023-08-06T12:29:43;99910.22;;;24.37;100.00
15487;BME280;7845;53.698;10.078;2023-08-06T12:32:12;99913.25;;;24.88;100.00
15487;BME280;7845;53.698;10.078;2023-08-06T12:34:42;99919.97;;;24.94;100.00
15487;BME280;7845;53.698;10.078;2023-08-06T12:37:09;99911.44;;;24.66;100.00
15487;BME280;7845;53.698;10.078;2023-08-06T12:39:36;99910.19;;;25.15;100.00
15487;BME280;7845;53.698;10.078;2023-08-06T12:42:03;99919.03;;;25.15;100.00
15487;BME280;7845;53.698;10.078;2023-08-06T12:44:28;99927.56;;;25.20;100.00
15487;BME280;7845;53.698;10.078;2023-08-06T12:46:54;99921.09;;;25.23;100.00
15487;BME280;7845;53.698;10.078;2023-08-06T12:49:20;99918.09;;;25.16;100.00
15487;BME280;7845;53.698;10.078;2023-08-06T12:51:49;99930.34;;;25.19;100.00
15487;BME280;7845;53.698;10.078;2023-08-06T12:54:21;99939.41;;;25.39;100.00